Rochdale, MA (01542)

2:16 PM EDT on August 25, 2016 (GMT -0400)
Greenville Weather station | | Change Station

Elev 774 ft 42.21 °N, 71.91 °W | Updated 11 seconds ago

Partly Cloudy
Partly Cloudy
78.6 °F
Feels Like 81 °F
N
0.0
Wind Variable Wind from SSE
Gusts 0.0 mph

Today
High -- | Low -- °F
--% Chance of Precip.
Yesterday
High -- | Low -- °F
Precip. -- in
Pressure 30.06 in
Visibility 10.0 miles
Clouds Few 3300 ft
Heat Index 81 °F
Dew Point 68 °F
Humidity 69%
Rainfall 0.00 in
Snow Depth Not available.
6:06 AM 7:32 PM
Last Quarter, 43% visible
METAR KORH 251754Z 20015G18KT 10SM FEW033 26/17 A3007 RMK AO2 SLP177 T02610172 10267 20194 58011
Pressure 30.06 in
Visibility 10.0 miles
Clouds Few 3300 ft
Heat Index 81 °F
Dew Point 68 °F
Humidity 69%
Rainfall 0.00 in
Snow Depth Not available.
6:06 AM 7:32 PM
Last Quarter, 43% visible
METAR KORH 251754Z 20015G18KT 10SM FEW033 26/17 A3007 RMK AO2 SLP177 T02610172 10267 20194 58011
A tropical disturbance pushing toward the Bahamas, is expected to develop into a tropical depression or storm, and will likely target Florida and the Gulf Coast this weekend into next week.

Right now, the disturbance remains a broad area of low pressure pushing through the Dominican Republic and Haiti, headed toward the southeast Bahamas. Rainfall totals over 3 inches (with locally higher amounts) are expected in HispaƱiola, particularly over elevated terrain.

10-Day Weather Forecast

Almanac

Astronomy

Aug. 25, 2016 Rise Set
Actual Time
Civil Twilight
Nautical Twilight
Astronomical Twilight
Moon
Length of Visible Light
Length of Day
Tomorrow will be .
, % of the Moon is Illuminated

Today's Extremes

State Highs State Lows

Community

WunderPhotos

Upload Photos

1,934,890 photos uploaded!

WunderBlog® & News

Nearby

Air Quality

  Air Quality AQ Index Pollutant
Not available.

Snow Depth

Station Depth Elevation

Earthquake Activity

City Distance Mag. Time & Date
Minimum magnitude displayed is 2.5.

Coastal Water Temperatures

Place Temperature

Stations

Nearby Weather Stations

Station Location Temp. Windchill Dew Point Humidity Wind Precip. Elev Updated Type
                   

Watches & Warnings

There are currently no watches in effect.